Time;durP1;ratioP1;P1;durP2;ratioP2;P2;SDS_P1;SDS_P2;PMS_P1;PMS_P2;Temp;Humidity;BMP_temperature;BMP_pressure;BME280_temperature;BME280_humidity;BME280_pressure;Samples;Min_cycle;Max_cycle;Signal;HPM_P1;HPM_P2
2023/08/24 00:00:10;;;;;;;;;;;;;;;;;;5000912;28;19921;-76
2023/08/24 00:02:56;;;;;;;;;;;;;;;;;;5002018;28;20542;-76
2023/08/24 00:05:44;;;;;;;;;;;;;;;;;;5008280;28;19929;-77
2023/08/24 00:08:30;;;;;;;;;;;;;;;;;;5007489;28;19924;-76
2023/08/24 00:11:17;;;;;;;;;;;;;;;;;;5005503;28;19924;-76
2023/08/24 00:14:03;;;;;;;;;;;;;;;;;;5007978;28;20407;-76
2023/08/24 00:16:50;;;;;;;;;;;;;;;;;;5004946;28;20585;-76
2023/08/24 00:19:36;;;;;;;;;;;;;;;;;;5007700;28;19927;-75
2023/08/24 00:22:23;;;;;;;;;;;;;;;;;;5012678;28;19925;-76
2023/08/24 00:25:10;;;;;;;;;;;;;;;;;;4999472;28;19921;-77
2023/08/24 00:27:56;;;;;;;;;;;;;;;;;;4995437;28;19917;-76
2023/08/24 00:30:43;;;;;;;;;;;;;;;;;;5005059;28;19926;-76
2023/08/24 00:33:29;;;;;;;;;;;;;;;;;;5007069;28;19924;-74
2023/08/24 00:36:17;;;;;;;;;;;;;;;;;;5000963;28;19926;-75
2023/08/24 00:39:04;;;;;;;;;;;;;;;;;;5003580;28;19924;-75
2023/08/24 00:41:51;;;;;;;;;;;;;;;;;;5000700;28;20403;-74
2023/08/24 00:44:37;;;;;;;;;;;;;;;;;;4999504;28;19924;-75
2023/08/24 00:47:24;;;;;;;;;;;;;;;;;;5006020;28;19924;-76
2023/08/24 00:50:10;;;;;;;;;;;;;;;;;;5010785;28;19948;-76
2023/08/24 00:52:57;;;;;;;;;;;;;;;;;;5009005;28;19920;-77
2023/08/24 00:55:43;;;;;;;;;;;;;;;;;;5005846;28;19932;-76
2023/08/24 00:58:31;;;;;;;;;;;;;;;;;;5002480;28;19918;-76
2023/08/24 01:01:17;;;;;;;;;;;;;;;;;;4998121;28;20376;-76
2023/08/24 01:04:04;;;;;;;;;;;;;;;;;;4990137;28;19929;-76
2023/08/24 01:06:51;;;;;;;;;;;;;;;;;;5007745;28;19921;-75
2023/08/24 01:09:37;;;;;;;;;;;;;;;;;;5000912;28;19918;-76
2023/08/24 01:12:24;;;;;;;;;;;;;;;;;;5007031;28;19918;-77
2023/08/24 01:15:10;;;;;;;;;;;;;;;;;;5003551;28;19926;-76
2023/08/24 01:17:57;;;;;;;;;;;;;;;;;;5008338;28;19920;-76
2023/08/24 01:20:43;;;;;;;;;;;;;;;;;;5009667;28;19928;-75
2023/08/24 01:23:30;;;;;;;;;;;;;;;;;;5007574;28;20581;-75
2023/08/24 01:26:16;;;;;;;;;;;;;;;;;;5002207;28;19924;-76
2023/08/24 01:29:03;;;;;;;;;;;;;;;;;;5003915;28;19929;-76
2023/08/24 01:31:49;;;;;;;;;;;;;;;;;;5006931;28;20328;-75
2023/08/24 01:34:36;;;;;;;;;;;;;;;;;;5014044;28;20150;-75
2023/08/24 01:37:22;;;;;;;;;;;;;;;;;;5014840;28;19922;-77
2023/08/24 01:40:11;;;;;;;;;;;;;;;;;;5001957;28;19945;-76
2023/08/24 01:42:58;;;;;;;;;;;;;;;;;;5007638;28;20273;-75
2023/08/24 01:45:44;;;;;;;;;;;;;;;;;;5013478;28;19928;-74
2023/08/24 01:48:31;;;;;;;;;;;;;;;;;;4989764;28;19921;-76
2023/08/24 01:51:17;;;;;;;;;;;;;;;;;;5003102;28;20287;-76
2023/08/24 01:54:04;;;;;;;;;;;;;;;;;;5007622;28;19921;-75
2023/08/24 01:56:50;;;;;;;;;;;;;;;;;;5011311;28;19930;-74
2023/08/24 01:59:37;;;;;;;;;;;;;;;;;;5003547;28;19924;-75
2023/08/24 02:02:23;;;;;;;;;;;;;;;;;;5010964;28;19917;-76
2023/08/24 02:05:10;;;;;;;;;;;;;;;;;;5003372;28;19922;-76
2023/08/24 02:07:57;;;;;;;;;;;;;;;;;;5010022;28;19914;-76
2023/08/24 02:10:43;;;;;;;;;;;;;;;;;;5007237;28;19925;-77
2023/08/24 02:13:30;;;;;;;;;;;;;;;;;;5004940;28;19917;-76
2023/08/24 02:16:16;;;;;;;;;;;;;;;;;;5010485;28;20317;-76
2023/08/24 02:19:03;;;;;;;;;;;;;;;;;;5003211;28;20403;-76
2023/08/24 02:21:49;;;;;;;;;;;;;;;;;;4992949;28;19934;-76
2023/08/24 02:24:36;;;;;;;;;;;;;;;;;;4998791;28;19932;-77
2023/08/24 02:27:22;;;;;;;;;;;;;;;;;;5002611;28;20440;-76
2023/08/24 02:30:09;;;;;;;;;;;;;;;;;;5004560;28;19929;-76
2023/08/24 02:32:56;;;;;;;;;;;;;;;;;;5004223;28;19918;-76
2023/08/24 02:35:44;;;;;;;;;;;;;;;;;;5001751;28;19936;-76
2023/08/24 02:38:31;;;;;;;;;;;;;;;;;;4994565;28;19917;-76
2023/08/24 02:41:17;;;;;;;;;;;;;;;;;;5007945;28;19921;-76
2023/08/24 02:44:04;;;;;;;;;;;;;;;;;;5008370;28;19917;-77
2023/08/24 02:46:50;;;;;;;;;;;;;;;;;;5000375;28;19921;-76
2023/08/24 02:49:37;;;;;;;;;;;;;;;;;;5009664;28;19941;-76
2023/08/24 02:52:23;;;;;;;;;;;;;;;;;;4993669;28;19928;-76
2023/08/24 02:55:10;;;;;;;;;;;;;;;;;;4999313;28;19928;-76
2023/08/24 02:57:56;;;;;;;;;;;;;;;;;;5007559;28;19932;-75
2023/08/24 03:00:43;;;;;;;;;;;;;;;;;;5002492;28;19917;-75
2023/08/24 03:03:29;;;;;;;;;;;;;;;;;;5001101;28;20647;-75
2023/08/24 03:06:16;;;;;;;;;;;;;;;;;;5006858;28;19924;-76
2023/08/24 03:09:06;;;;;;;;;;;;;;;;;;5013632;28;20261;-75
2023/08/24 03:11:52;;;;;;;;;;;;;;;;;;5006900;28;19928;-76
2023/08/24 03:14:39;;;;;;;;;;;;;;;;;;5010402;28;19933;-76
2023/08/24 03:17:26;;;;;;;;;;;;;;;;;;5011883;28;19936;-75
2023/08/24 03:20:12;;;;;;;;;;;;;;;;;;4996731;28;19917;-74
2023/08/24 03:22:59;;;;;;;;;;;;;;;;;;5006186;28;19930;-77
2023/08/24 03:25:45;;;;;;;;;;;;;;;;;;5008515;28;19918;-74
2023/08/24 03:28:32;;;;;;;;;;;;;;;;;;5004406;28;20437;-76
2023/08/24 03:31:18;;;;;;;;;;;;;;;;;;5000486;28;19922;-75
2023/08/24 03:34:05;;;;;;;;;;;;;;;;;;5000982;28;19918;-77
2023/08/24 03:36:51;;;;;;;;;;;;;;;;;;5004273;28;19932;-76
2023/08/24 03:39:38;;;;;;;;;;;;;;;;;;5002779;28;19922;-77
2023/08/24 03:42:25;;;;;;;;;;;;;;;;;;5007987;28;19917;-75
2023/08/24 03:45:11;;;;;;;;;;;;;;;;;;5008134;28;19920;-76
2023/08/24 03:47:58;;;;;;;;;;;;;;;;;;5010905;28;19943;-75
2023/08/24 03:50:44;;;;;;;;;;;;;;;;;;5002127;28;19922;-75
2023/08/24 03:53:32;;;;;;;;;;;;;;;;;;5004247;28;19928;-76
2023/08/24 03:56:18;;;;;;;;;;;;;;;;;;4996615;28;19936;-74
2023/08/24 03:59:05;;;;;;;;;;;;;;;;;;4998108;28;19944;-75
2023/08/24 04:01:51;;;;;;;;;;;;;;;;;;5000203;28;19918;-75
2023/08/24 04:04:38;;;;;;;;;;;;;;;;;;5010902;28;19956;-75
2023/08/24 04:07:24;;;;;;;;;;;;;;;;;;5007195;28;20292;-75
2023/08/24 04:10:11;;;;;;;;;;;;;;;;;;5004626;28;20392;-75
2023/08/24 04:12:57;;;;;;;;;;;;;;;;;;5004535;28;19920;-75
2023/08/24 04:15:44;;;;;;;;;;;;;;;;;;5005731;28;19921;-75
2023/08/24 04:18:30;;;;;;;;;;;;;;;;;;5001806;28;19926;-74
2023/08/24 04:21:17;;;;;;;;;;;;;;;;;;5003123;28;19918;-77
2023/08/24 04:24:03;;;;;;;;;;;;;;;;;;4999424;28;20313;-74
2023/08/24 04:26:50;;;;;;;;;;;;;;;;;;4994099;28;19925;-74
2023/08/24 04:29:36;;;;;;;;;;;;;;;;;;5012220;28;20343;-75
2023/08/24 04:32:23;;;;;;;;;;;;;;;;;;5003789;28;20697;-75
2023/08/24 04:35:10;;;;;;;;;;;;;;;;;;5004064;28;19925;-78
2023/08/24 04:37:56;;;;;;;;;;;;;;;;;;5000387;28;19929;-78
2023/08/24 04:40:43;;;;;;;;;;;;;;;;;;5005700;28;20292;-78
2023/08/24 04:43:29;;;;;;;;;;;;;;;;;;5002749;28;19932;-78
2023/08/24 04:46:16;;;;;;;;;;;;;;;;;;5002189;28;19957;-78
2023/08/24 04:49:03;;;;;;;;;;;;;;;;;;4998126;28;19928;-77
2023/08/24 04:51:49;;;;;;;;;;;;;;;;;;5002228;28;19942;-79
2023/08/24 04:54:36;;;;;;;;;;;;;;;;;;5000616;28;20403;-78
2023/08/24 04:57:22;;;;;;;;;;;;;;;;;;5002359;28;19936;-79
2023/08/24 05:00:12;;;;;;;;;;;;;;;;;;5000650;28;19918;-79
2023/08/24 05:02:58;;;;;;;;;;;;;;;;;;5004350;28;19921;-81
2023/08/24 05:05:45;;;;;;;;;;;;;;;;;;5006206;28;19921;-79
2023/08/24 05:08:33;;;;;;;;;;;;;;;;;;5009003;28;20365;-79
2023/08/24 05:11:19;;;;;;;;;;;;;;;;;;5008960;28;20404;-79
2023/08/24 05:14:05;;;;;;;;;;;;;;;;;;5003161;28;19921;-80
2023/08/24 05:16:52;;;;;;;;;;;;;;;;;;5001311;28;19921;-80
2023/08/24 05:19:38;;;;;;;;;;;;;;;;;;4998737;28;19926;-78
2023/08/24 05:22:25;;;;;;;;;;;;;;;;;;5001666;28;19936;-80
2023/08/24 05:25:11;;;;;;;;;;;;;;;;;;4996923;28;19921;-80
2023/08/24 05:27:58;;;;;;;;;;;;;;;;;;5004156;28;19914;-79
2023/08/24 05:30:44;;;;;;;;;;;;;;;;;;5002762;28;19921;-79
2023/08/24 05:33:33;;;;;;;;;;;;;;;;;;5001291;28;19922;-79
2023/08/24 05:36:19;;;;;;;;;;;;;;;;;;5001156;28;19936;-78
2023/08/24 05:39:06;;;;;;;;;;;;;;;;;;5005484;28;19928;-80
2023/08/24 05:41:52;;;;;;;;;;;;;;;;;;4995642;28;19927;-80
2023/08/24 05:44:38;;;;;;;;;;;;;;;;;;5004213;28;20419;-81
2023/08/24 05:47:25;;;;;;;;;;;;;;;;;;5008317;28;19924;-78
2023/08/24 05:50:11;;;;;;;;;;;;;;;;;;5005576;28;19925;-81
2023/08/24 05:52:58;;;;;;;;;;;;;;;;;;5002527;28;19929;-86
2023/08/24 05:55:44;;;;;;;;;;;;;;;;;;5006762;28;19917;-87
2023/08/24 05:58:31;;;;;;;;;;;;;;;;;;5001835;28;19917;-86
2023/08/24 06:01:17;;;;;;;;;;;;;;;;;;5011320;28;19918;-87
2023/08/24 06:04:04;;;;;;;;;;;;;;;;;;5007965;28;19933;-87
2023/08/24 06:06:51;;;;;;;;;;;;;;;;;;5008306;28;19921;-89
2023/08/24 06:09:37;;;;;;;;;;;;;;;;;;5004657;28;19918;-89
2023/08/24 06:12:24;;;;;;;;;;;;;;;;;;4995613;28;20289;-90
2023/08/24 06:15:13;;;;;;;;;;;;;;;;;;4990303;28;19918;-89
2023/08/24 06:18:00;;;;;;;;;;;;;;;;;;5001262;28;20389;-88
2023/08/24 06:20:48;;;;;;;;;;;;;;;;;;4995482;28;19929;-88
2023/08/24 06:23:35;;;;;;;;;;;;;;;;;;5002534;28;19937;-90
2023/08/24 06:26:21;;;;;;;;;;;;;;;;;;4995722;28;19925;-88
2023/08/24 06:29:08;;;;;;;;;;;;;;;;;;5006239;28;19917;-89
2023/08/24 06:31:55;;;;;;;;;;;;;;;;;;5005657;28;19932;-84
2023/08/24 06:34:41;;;;;;;;;;;;;;;;;;5004171;28;19944;-89
2023/08/24 06:37:28;;;;;;;;;;;;;;;;;;5002827;28;19929;-89
2023/08/24 06:40:14;;;;;;;;;;;;;;;;;;5002189;28;19926;-89
2023/08/24 06:43:01;;;;;;;;;;;;;;;;;;5005228;28;19928;-88
2023/08/24 06:45:47;;;;;;;;;;;;;;;;;;5006107;28;20574;-89
2023/08/24 06:48:35;;;;;;;;;;;;;;;;;;5005576;28;19924;-88
2023/08/24 06:51:21;;;;;;;;;;;;;;;;;;5009728;28;20369;-89
2023/08/24 06:54:08;;;;;;;;;;;;;;;;;;5003601;28;19928;-90
2023/08/24 06:56:54;;;;;;;;;;;;;;;;;;4997467;28;19933;-78
2023/08/24 06:59:41;;;;;;;;;;;;;;;;;;5013178;28;19920;-89
2023/08/24 07:02:27;;;;;;;;;;;;;;;;;;5003969;28;19922;-90
2023/08/24 07:05:14;;;;;;;;;;;;;;;;;;5004213;28;19921;-89
2023/08/24 07:08:02;;;;;;;;;;;;;;;;;;5012023;28;19929;-89
2023/08/24 07:10:48;;;;;;;;;;;;;;;;;;5003401;28;19932;-89
2023/08/24 07:13:35;;;;;;;;;;;;;;;;;;5004746;28;19921;-89
2023/08/24 07:16:22;;;;;;;;;;;;;;;;;;5003310;28;19937;-89
2023/08/24 07:19:08;;;;;;;;;;;;;;;;;;5002633;28;20649;-89
2023/08/24 07:21:55;;;;;;;;;;;;;;;;;;5003252;28;21125;-87
2023/08/24 07:24:41;;;;;;;;;;;;;;;;;;5001736;28;19928;-88
2023/08/24 07:27:28;;;;;;;;;;;;;;;;;;5006020;28;19924;-88
2023/08/24 07:30:15;;;;;;;;;;;;;;;;;;5003853;28;19925;-89
2023/08/24 07:33:02;;;;;;;;;;;;;;;;;;5001318;28;20324;-89
2023/08/24 07:35:49;;;;;;;;;;;;;;;;;;5002267;28;19932;-89
2023/08/24 07:38:35;;;;;;;;;;;;;;;;;;5002666;28;19960;-89
2023/08/24 07:41:22;;;;;;;;;;;;;;;;;;5003694;28;19918;-89
2023/08/24 07:44:08;;;;;;;;;;;;;;;;;;5007598;28;19922;-89
2023/08/24 07:46:55;;;;;;;;;;;;;;;;;;4998144;28;19922;-87
2023/08/24 07:49:44;;;;;;;;;;;;;;;;;;5010185;28;19925;-88
2023/08/24 07:52:30;;;;;;;;;;;;;;;;;;5006826;28;19946;-89
2023/08/24 07:55:17;;;;;;;;;;;;;;;;;;5012979;28;19926;-89
2023/08/24 07:58:03;;;;;;;;;;;;;;;;;;5003975;28;19943;-89
2023/08/24 08:00:51;;;;;;;;;;;;;;;;;;5004196;28;19923;-88
2023/08/24 08:03:37;;;;;;;;;;;;;;;;;;5004485;28;19921;-88
2023/08/24 08:06:25;;;;;;;;;;;;;;;;;;5004676;28;20297;-89
2023/08/24 08:09:12;;;;;;;;;;;;;;;;;;5006724;28;19921;-89
2023/08/24 08:11:58;;;;;;;;;;;;;;;;;;5010059;28;19924;-89
2023/08/24 08:14:45;;;;;;;;;;;;;;;;;;5007383;28;19920;-89
2023/08/24 08:17:33;;;;;;;;;;;;;;;;;;5009609;28;19933;-89
2023/08/24 08:20:19;;;;;;;;;;;;;;;;;;5005390;28;19914;-89
2023/08/24 08:23:06;;;;;;;;;;;;;;;;;;5009587;28;19929;-89
2023/08/24 08:25:53;;;;;;;;;;;;;;;;;;5008132;28;20076;-89
2023/08/24 08:28:39;;;;;;;;;;;;;;;;;;5008448;28;19921;-89
2023/08/24 08:31:26;;;;;;;;;;;;;;;;;;5006507;28;19921;-89
2023/08/24 08:34:12;;;;;;;;;;;;;;;;;;5005604;28;19924;-88
2023/08/24 08:36:59;;;;;;;;;;;;;;;;;;5007185;28;19963;-89
2023/08/24 08:39:45;;;;;;;;;;;;;;;;;;5015694;28;19924;-89
2023/08/24 08:42:32;;;;;;;;;;;;;;;;;;5010197;28;20281;-88
2023/08/24 08:45:19;;;;;;;;;;;;;;;;;;5012840;28;20005;-88
2023/08/24 08:48:05;;;;;;;;;;;;;;;;;;5005910;28;19924;-89
2023/08/24 08:50:53;;;;;;;;;;;;;;;;;;5010224;28;19917;-88
2023/08/24 08:53:39;;;;;;;;;;;;;;;;;;5007562;28;19932;-89
2023/08/24 08:56:26;;;;;;;;;;;;;;;;;;5005326;28;19925;-90
2023/08/24 08:59:12;;;;;;;;;;;;;;;;;;5005462;28;19926;-88
2023/08/24 09:02:00;;;;;;;;;;;;;;;;;;5004753;28;20384;-89
2023/08/24 09:04:47;;;;;;;;;;;;;;;;;;5008449;28;19996;-89
2023/08/24 09:07:33;;;;;;;;;;;;;;;;;;5004900;28;19932;-89
2023/08/24 09:10:20;;;;;;;;;;;;;;;;;;5007177;28;19921;-89
2023/08/24 09:13:06;;;;;;;;;;;;;;;;;;5006900;28;19925;-88
2023/08/24 09:15:53;;;;;;;;;;;;;;;;;;4993456;28;19921;-89
2023/08/24 09:18:40;;;;;;;;;;;;;;;;;;5005539;28;20169;-89
2023/08/24 09:21:26;;;;;;;;;;;;;;;;;;5012715;28;19930;-88
2023/08/24 09:24:13;;;;;;;;;;;;;;;;;;5005630;28;19922;-88
2023/08/24 09:26:59;;;;;;;;;;;;;;;;;;5005611;28;19924;-88
2023/08/24 09:29:45;;;;;;;;;;;;;;;;;;5009007;28;19929;-89
2023/08/24 09:32:32;;;;;;;;;;;;;;;;;;5006642;28;19917;-88
2023/08/24 09:35:18;;;;;;;;;;;;;;;;;;5007111;28;19917;-89
2023/08/24 09:38:05;;;;;;;;;;;;;;;;;;5009917;28;19936;-88
2023/08/24 09:40:51;;;;;;;;;;;;;;;;;;5005947;28;20373;-87
2023/08/24 09:43:38;;;;;;;;;;;;;;;;;;5007275;28;19933;-90
2023/08/24 09:46:24;;;;;;;;;;;;;;;;;;5004845;28;19958;-88
2023/08/24 09:49:11;;;;;;;;;;;;;;;;;;5005135;28;19929;-88
2023/08/24 09:51:58;;;;;;;;;;;;;;;;;;5006380;28;19921;-88
2023/08/24 09:54:45;;;;;;;;;;;;;;;;;;5005514;28;19914;-88
2023/08/24 09:57:31;;;;;;;;;;;;;;;;;;4997552;28;20344;-89
2023/08/24 10:00:22;;;;;;;;;;;;;;;;;;4990899;28;19918;-88
2023/08/24 10:03:08;;;;;;;;;;;;;;;;;;5005450;28;19922;-89
2023/08/24 10:05:55;;;;;;;;;;;;;;;;;;4998248;28;20313;-87
2023/08/24 10:08:41;;;;;;;;;;;;;;;;;;5003207;28;19922;-88
2023/08/24 10:11:28;;;;;;;;;;;;;;;;;;5003693;28;19918;-88
2023/08/24 10:14:14;;;;;;;;;;;;;;;;;;5001216;28;19932;-88
2023/08/24 10:17:01;;;;;;;;;;;;;;;;;;4991484;28;19926;-88
2023/08/24 10:19:47;;;;;;;;;;;;;;;;;;5006757;28;19921;-88
2023/08/24 10:22:34;;;;;;;;;;;;;;;;;;5005247;28;19937;-89
2023/08/24 10:25:21;;;;;;;;;;;;;;;;;;5008490;28;19928;-88
2023/08/24 10:28:07;;;;;;;;;;;;;;;;;;5004293;28;19917;-89
2023/08/24 10:30:53;;;;;;;;;;;;;;;;;;5006247;28;19924;-90
2023/08/24 10:33:40;;;;;;;;;;;;;;;;;;5008986;28;19918;-90
2023/08/24 10:36:27;;;;;;;;;;;;;;;;;;4998344;28;19922;-90
2023/08/24 10:39:13;;;;;;;;;;;;;;;;;;5013515;28;19913;-92
2023/08/24 10:42:00;;;;;;;;;;;;;;;;;;5011876;28;19913;-87
2023/08/24 10:44:46;;;;;;;;;;;;;;;;;;5004648;28;19924;-90
2023/08/24 10:47:33;;;;;;;;;;;;;;;;;;5015797;28;19921;-88
2023/08/24 10:50:19;;;;;;;;;;;;;;;;;;4999313;28;19943;-89
2023/08/24 10:53:06;;;;;;;;;;;;;;;;;;5005281;28;19929;-89
2023/08/24 10:55:53;;;;;;;;;;;;;;;;;;5005138;28;19922;-90
2023/08/24 10:58:39;;;;;;;;;;;;;;;;;;4991432;28;19926;-89
2023/08/24 11:01:26;;;;;;;;;;;;;;;;;;5002257;28;20565;-89
2023/08/24 11:04:12;;;;;;;;;;;;;;;;;;4998411;28;19920;-89
2023/08/24 11:06:59;;;;;;;;;;;;;;;;;;5000383;28;19924;-90
2023/08/24 11:09:46;;;;;;;;;;;;;;;;;;4998603;28;19929;-89
2023/08/24 11:12:33;;;;;;;;;;;;;;;;;;4990606;28;19913;-90
2023/08/24 11:15:19;;;;;;;;;;;;;;;;;;5007674;28;19925;-90
2023/08/24 11:18:06;;;;;;;;;;;;;;;;;;4999923;28;19930;-89
2023/08/24 11:20:52;;;;;;;;;;;;;;;;;;5006735;28;20391;-88
2023/08/24 11:23:39;;;;;;;;;;;;;;;;;;5003345;28;19937;-88
2023/08/24 11:26:25;;;;;;;;;;;;;;;;;;5004133;28;19918;-87
2023/08/24 11:29:12;;;;;;;;;;;;;;;;;;5002506;28;19929;-87
2023/08/24 11:31:58;;;;;;;;;;;;;;;;;;5003903;28;19922;-87
2023/08/24 11:34:45;;;;;;;;;;;;;;;;;;5005846;28;19929;-87
2023/08/24 11:37:31;;;;;;;;;;;;;;;;;;5007116;28;19936;-88
2023/08/24 11:40:26;;;;;;;;;;;;;;;;;;5009191;28;19944;-88
2023/08/24 11:43:12;;;;;;;;;;;;;;;;;;5006531;28;19921;-88
2023/08/24 11:45:59;;;;;;;;;;;;;;;;;;4999894;28;19925;-89
2023/08/24 11:48:45;;;;;;;;;;;;;;;;;;5001294;28;19940;-89
2023/08/24 11:51:34;;;;;;;;;;;;;;;;;;5002730;28;19921;-88
2023/08/24 11:54:21;;;;;;;;;;;;;;;;;;5010588;28;19925;-88
2023/08/24 11:57:10;;;;;;;;;;;;;;;;;;5001784;28;20389;-88
2023/08/24 11:59:59;;;;;;;;;;;;;;;;;;5005566;28;20457;-89
2023/08/24 12:02:45;;;;;;;;;;;;;;;;;;5006930;28;19929;-89
2023/08/24 12:05:32;;;;;;;;;;;;;;;;;;5017068;28;19919;-89
2023/08/24 12:08:18;;;;;;;;;;;;;;;;;;5032826;28;20214;-91
2023/08/24 12:11:05;;;;;;;;;;;;;;;;;;5029234;28;19985;-92
2023/08/24 12:13:52;;;;;;;;;;;;;;;;;;5029836;28;19906;-93
2023/08/24 12:16:38;;;;;;;;;;;;;;;;;;5028438;28;19924;-92
2023/08/24 12:19:25;;;;;;;;;;;;;;;;;;5028021;28;19921;-92
2023/08/24 12:22:11;;;;;;;;;;;;;;;;;;5029225;28;19921;-93
2023/08/24 12:24:58;;;;;;;;;;;;;;;;;;5031012;28;19906;-89
2023/08/24 12:27:44;;;;;;;;;;;;;;;;;;5025789;28;19922;-91
2023/08/24 12:30:32;;;;;;;;;;;;;;;;;;5026077;28;19977;-91
2023/08/24 12:33:19;;;;;;;;;;;;;;;;;;5029538;28;19909;-90
2023/08/24 12:36:05;;;;;;;;;;;;;;;;;;5025415;28;19929;-90
2023/08/24 12:38:52;;;;;;;;;;;;;;;;;;5018231;28;19926;-92
2023/08/24 12:41:38;;;;;;;;;;;;;;;;;;5013514;28;20296;-91
2023/08/24 12:44:25;;;;;;;;;;;;;;;;;;5015708;28;19925;-92
2023/08/24 12:47:11;;;;;;;;;;;;;;;;;;5018769;28;19913;-91
2023/08/24 12:49:57;;;;;;;;;;;;;;;;;;5007239;28;19917;-92
2023/08/24 12:52:44;;;;;;;;;;;;;;;;;;5010765;28;19917;-92
2023/08/24 12:55:30;;;;;;;;;;;;;;;;;;5010582;28;19923;-91
2023/08/24 12:58:18;;;;;;;;;;;;;;;;;;5014901;28;19969;-91
2023/08/24 13:01:04;;;;;;;;;;;;;;;;;;5011020;28;20266;-92
2023/08/24 13:03:51;;;;;;;;;;;;;;;;;;5004933;28;19928;-91
2023/08/24 13:06:37;;;;;;;;;;;;;;;;;;4997459;28;19921;-91
2023/08/24 13:09:24;;;;;;;;;;;;;;;;;;5012517;28;19921;-92
2023/08/24 13:12:10;;;;;;;;;;;;;;;;;;5010020;28;20376;-89
2023/08/24 13:14:57;;;;;;;;;;;;;;;;;;5011302;28;19928;-91
2023/08/24 13:17:43;;;;;;;;;;;;;;;;;;4998098;28;19926;-91
2023/08/24 13:20:30;;;;;;;;;;;;;;;;;;5012707;28;19948;-90
2023/08/24 13:23:16;;;;;;;;;;;;;;;;;;4998702;28;19937;-92
2023/08/24 13:26:03;;;;;;;;;;;;;;;;;;5004272;28;19922;-91
2023/08/24 13:28:49;;;;;;;;;;;;;;;;;;5010537;28;19918;-91
2023/08/24 13:31:36;;;;;;;;;;;;;;;;;;5009037;28;20347;-91
2023/08/24 13:34:22;;;;;;;;;;;;;;;;;;5007419;28;19932;-91
2023/08/24 13:37:09;;;;;;;;;;;;;;;;;;5005845;28;19925;-91
2023/08/24 13:39:55;;;;;;;;;;;;;;;;;;5007465;28;19931;-89
2023/08/24 13:42:42;;;;;;;;;;;;;;;;;;4995937;28;19944;-92
2023/08/24 13:45:30;;;;;;;;;;;;;;;;;;5017598;28;19925;-91
2023/08/24 13:48:17;;;;;;;;;;;;;;;;;;5009111;28;20290;-93
2023/08/24 13:51:03;;;;;;;;;;;;;;;;;;5008034;28;19937;-89
2023/08/24 13:53:50;;;;;;;;;;;;;;;;;;5006965;28;19917;-93
2023/08/24 13:56:36;;;;;;;;;;;;;;;;;;5000959;28;19937;-92
2023/08/24 13:59:23;;;;;;;;;;;;;;;;;;4977492;28;19918;-91
2023/08/24 14:02:11;;;;;;;;;;;;;;;;;;5000616;28;19921;-92
2023/08/24 14:04:58;;;;;;;;;;;;;;;;;;5003986;28;19918;-92
2023/08/24 14:07:44;;;;;;;;;;;;;;;;;;5003635;28;20036;-91
2023/08/24 14:10:31;;;;;;;;;;;;;;;;;;5005777;28;19917;-91
2023/08/24 14:13:17;;;;;;;;;;;;;;;;;;5004466;28;19918;-92
2023/08/24 14:16:04;;;;;;;;;;;;;;;;;;5001835;28;19929;-91
2023/08/24 14:18:50;;;;;;;;;;;;;;;;;;5004800;28;19948;-91
2023/08/24 14:21:37;;;;;;;;;;;;;;;;;;4986984;28;19930;-92
2023/08/24 14:24:23;;;;;;;;;;;;;;;;;;4995168;28;20478;-91
2023/08/24 14:27:10;;;;;;;;;;;;;;;;;;5001528;28;19921;-93
2023/08/24 14:29:56;;;;;;;;;;;;;;;;;;5004118;28;19963;-91
2023/08/24 14:32:43;;;;;;;;;;;;;;;;;;5004729;28;19920;-91
2023/08/24 14:35:30;;;;;;;;;;;;;;;;;;5008559;28;19925;-92
2023/08/24 14:38:16;;;;;;;;;;;;;;;;;;5006967;28;20490;-90
2023/08/24 14:41:03;;;;;;;;;;;;;;;;;;5006043;28;19924;-91
2023/08/24 14:43:49;;;;;;;;;;;;;;;;;;5008131;28;19922;-92
2023/08/24 14:46:36;;;;;;;;;;;;;;;;;;5004449;28;19922;-91
2023/08/24 14:49:22;;;;;;;;;;;;;;;;;;5007972;28;19922;-90
2023/08/24 14:52:09;;;;;;;;;;;;;;;;;;5006134;28;19921;-94
2023/08/24 14:54:55;;;;;;;;;;;;;;;;;;4999562;28;19921;-88
2023/08/24 14:57:42;;;;;;;;;;;;;;;;;;5003089;28;19936;-90
2023/08/24 15:00:28;;;;;;;;;;;;;;;;;;4999550;28;19979;-85
2023/08/24 15:03:16;;;;;;;;;;;;;;;;;;4996877;28;19932;-84
2023/08/24 15:06:06;;;;;;;;;;;;;;;;;;5002263;28;19921;-84
2023/08/24 15:08:52;;;;;;;;;;;;;;;;;;5003027;28;20452;-84
2023/08/24 15:11:39;;;;;;;;;;;;;;;;;;5006237;28;19937;-84
2023/08/24 15:14:25;;;;;;;;;;;;;;;;;;5001349;28;19917;-83
2023/08/24 15:17:12;;;;;;;;;;;;;;;;;;5002568;28;19929;-82
2023/08/24 15:19:58;;;;;;;;;;;;;;;;;;5002703;28;19922;-82
2023/08/24 15:22:44;;;;;;;;;;;;;;;;;;5002267;28;19936;-82
2023/08/24 15:25:31;;;;;;;;;;;;;;;;;;5005490;28;19932;-83
2023/08/24 15:28:17;;;;;;;;;;;;;;;;;;4995027;28;20024;-82
2023/08/24 15:31:04;;;;;;;;;;;;;;;;;;5000074;28;20016;-83
2023/08/24 15:33:51;;;;;;;;;;;;;;;;;;4999512;28;19922;-83
2023/08/24 15:36:37;;;;;;;;;;;;;;;;;;4999670;28;19929;-81
2023/08/24 15:39:24;;;;;;;;;;;;;;;;;;5001697;28;19932;-82
2023/08/24 15:42:10;;;;;;;;;;;;;;;;;;5004213;28;19928;-82
2023/08/24 15:44:57;;;;;;;;;;;;;;;;;;4998254;28;20542;-82
2023/08/24 15:47:43;;;;;;;;;;;;;;;;;;5001436;28;19933;-83
2023/08/24 15:50:30;;;;;;;;;;;;;;;;;;5005092;28;19917;-83
2023/08/24 15:53:16;;;;;;;;;;;;;;;;;;5000712;28;20411;-83
2023/08/24 15:56:03;;;;;;;;;;;;;;;;;;4998141;28;19932;-82
2023/08/24 15:58:49;;;;;;;;;;;;;;;;;;5000090;28;19930;-83
2023/08/24 16:01:36;;;;;;;;;;;;;;;;;;5003010;28;19926;-84
2023/08/24 16:04:22;;;;;;;;;;;;;;;;;;4993095;28;19913;-85
2023/08/24 16:07:09;;;;;;;;;;;;;;;;;;5000998;28;19926;-85
2023/08/24 16:09:55;;;;;;;;;;;;;;;;;;5003835;28;19929;-82
2023/08/24 16:12:42;;;;;;;;;;;;;;;;;;4994050;28;19921;-84
2023/08/24 16:15:28;;;;;;;;;;;;;;;;;;5002696;28;19918;-92
2023/08/24 16:18:15;;;;;;;;;;;;;;;;;;5002984;28;19926;-90
2023/08/24 16:21:01;;;;;;;;;;;;;;;;;;5009267;28;19925;-92
2023/08/24 16:23:48;;;;;;;;;;;;;;;;;;5009342;28;19917;-91
2023/08/24 16:26:35;;;;;;;;;;;;;;;;;;5005202;28;19921;-93
2023/08/24 16:29:22;;;;;;;;;;;;;;;;;;5006122;28;19928;-91
2023/08/24 16:32:08;;;;;;;;;;;;;;;;;;4989301;28;19921;-92
2023/08/24 16:34:55;;;;;;;;;;;;;;;;;;5006787;28;19932;-92
2023/08/24 16:37:41;;;;;;;;;;;;;;;;;;5010257;28;19940;-91
2023/08/24 16:40:28;;;;;;;;;;;;;;;;;;5006201;28;19929;-91
2023/08/24 16:43:14;;;;;;;;;;;;;;;;;;5003412;28;19926;-89
2023/08/24 16:46:00;;;;;;;;;;;;;;;;;;4991748;28;19927;-82
2023/08/24 16:48:47;;;;;;;;;;;;;;;;;;5002007;28;20506;-89
2023/08/24 16:51:33;;;;;;;;;;;;;;;;;;5002046;28;19922;-87
2023/08/24 16:54:20;;;;;;;;;;;;;;;;;;5005064;28;19914;-85
2023/08/24 16:57:06;;;;;;;;;;;;;;;;;;4999071;28;19925;-91
2023/08/24 16:59:53;;;;;;;;;;;;;;;;;;5000914;28;19924;-88
2023/08/24 17:02:39;;;;;;;;;;;;;;;;;;5002404;28;19929;-85
2023/08/24 17:05:26;;;;;;;;;;;;;;;;;;4999163;28;19917;-88
2023/08/24 17:08:12;;;;;;;;;;;;;;;;;;5007938;28;19918;-89
2023/08/24 17:10:59;;;;;;;;;;;;;;;;;;5005995;28;19928;-88
2023/08/24 17:13:45;;;;;;;;;;;;;;;;;;5008893;28;19952;-87
2023/08/24 17:16:32;;;;;;;;;;;;;;;;;;4996433;28;19918;-76
2023/08/24 17:19:18;;;;;;;;;;;;;;;;;;5003527;28;19937;-76
2023/08/24 17:22:05;;;;;;;;;;;;;;;;;;5003201;28;19925;-78
2023/08/24 17:24:51;;;;;;;;;;;;;;;;;;5003001;28;19925;-76
2023/08/24 17:27:38;;;;;;;;;;;;;;;;;;5007965;28;19922;-80
2023/08/24 17:30:24;;;;;;;;;;;;;;;;;;4999592;28;19929;-80
2023/08/24 17:33:11;;;;;;;;;;;;;;;;;;4998199;28;19976;-77
2023/08/24 17:35:59;;;;;;;;;;;;;;;;;;5001002;28;19921;-77
2023/08/24 17:38:46;;;;;;;;;;;;;;;;;;4999835;28;20464;-78
2023/08/24 17:41:32;;;;;;;;;;;;;;;;;;5002506;28;20486;-77
2023/08/24 17:44:19;;;;;;;;;;;;;;;;;;4996705;28;19929;-78
2023/08/24 17:47:05;;;;;;;;;;;;;;;;;;4999834;28;19920;-76
2023/08/24 17:49:52;;;;;;;;;;;;;;;;;;5001847;28;20552;-76
2023/08/24 17:52:38;;;;;;;;;;;;;;;;;;5001807;28;19926;-76
2023/08/24 17:55:25;;;;;;;;;;;;;;;;;;4999317;28;19933;-75
2023/08/24 17:58:11;;;;;;;;;;;;;;;;;;5001531;28;19933;-78
2023/08/24 18:00:58;;;;;;;;;;;;;;;;;;5003945;28;19918;-77
2023/08/24 18:03:44;;;;;;;;;;;;;;;;;;4998310;28;19922;-77
2023/08/24 18:06:31;;;;;;;;;;;;;;;;;;5001492;28;20635;-76
2023/08/24 18:09:17;;;;;;;;;;;;;;;;;;5001026;28;19914;-78
2023/08/24 18:12:05;;;;;;;;;;;;;;;;;;4995973;28;20285;-77
2023/08/24 18:14:51;;;;;;;;;;;;;;;;;;4990202;28;20380;-76
2023/08/24 18:17:39;;;;;;;;;;;;;;;;;;4999621;28;19934;-77
2023/08/24 18:20:26;;;;;;;;;;;;;;;;;;4991643;28;19944;-77
2023/08/24 18:23:12;;;;;;;;;;;;;;;;;;4998918;28;20184;-76
2023/08/24 18:25:59;;;;;;;;;;;;;;;;;;4998190;28;19943;-75
2023/08/24 18:28:45;;;;;;;;;;;;;;;;;;4997491;28;19922;-75
2023/08/24 18:31:32;;;;;;;;;;;;;;;;;;4998954;28;19929;-76
2023/08/24 18:34:18;;;;;;;;;;;;;;;;;;5004098;28;19928;-78
2023/08/24 18:37:05;;;;;;;;;;;;;;;;;;5000354;28;19917;-78
2023/08/24 18:39:51;;;;;;;;;;;;;;;;;;5000991;28;19921;-78
2023/08/24 18:42:38;;;;;;;;;;;;;;;;;;5000762;28;19925;-78
2023/08/24 18:45:24;;;;;;;;;;;;;;;;;;5001341;28;19921;-79
2023/08/24 18:48:11;;;;;;;;;;;;;;;;;;5005950;28;19921;-78
2023/08/24 18:50:57;;;;;;;;;;;;;;;;;;4997590;28;20295;-80
2023/08/24 18:53:44;;;;;;;;;;;;;;;;;;4998838;28;20320;-79
2023/08/24 18:56:30;;;;;;;;;;;;;;;;;;5014832;28;19932;-81